Time;durP1;ratioP1;P1;durP2;ratioP2;P2;SDS_P1;SDS_P2;PMS_P1;PMS_P2;Temp;Humidity;BMP_temperature;BMP_pressure;BME280_temperature;BME280_humidity;BME280_pressure;Samples;Min_cycle;Max_cycle;Signal;HPM_P1;HPM_P2
2021/07/03 00:01:24;;;;;;;18.40;7.07;;;;;;;;;;5069490;28;20037;-59
2021/07/03 00:03:51;;;;;;;16.95;6.53;;;;;;;;;;5085774;28;20097;-59
2021/07/03 00:06:17;;;;;;;18.38;6.90;;;;;;;;;;5068364;28;20044;-59
2021/07/03 00:08:44;;;;;;;18.58;6.95;;;;;;;;;;5063133;28;20045;-59
2021/07/03 00:11:13;;;;;;;15.02;6.07;;;;;;;;;;5050872;28;20046;-59
2021/07/03 00:13:39;;;;;;;13.10;6.35;;;;;;;;;;5083160;28;20052;-59
2021/07/03 00:16:06;;;;;;;13.07;6.13;;;;;;;;;;5045952;28;20064;-59
2021/07/03 00:18:36;;;;;;;12.70;6.05;;;;;;;;;;5070889;28;20105;-59
2021/07/03 00:21:03;;;;;;;14.18;6.47;;;;;;;;;;5077068;28;20057;-59
2021/07/03 00:23:30;;;;;;;14.07;6.22;;;;;;;;;;5056247;28;20039;-58
2021/07/03 00:25:57;;;;;;;13.90;6.55;;;;;;;;;;5083279;28;20081;-59
2021/07/03 00:28:23;;;;;;;15.43;6.63;;;;;;;;;;5095378;28;20279;-59
2021/07/03 00:30:50;;;;;;;16.13;6.97;;;;;;;;;;5062581;28;20047;-58
2021/07/03 00:33:17;;;;;;;14.13;6.18;;;;;;;;;;5046439;28;20045;-59
2021/07/03 00:35:48;;;;;;;13.40;7.15;;;;;;;;;;5061412;28;20055;-59
2021/07/03 00:38:14;;;;;;;15.02;6.22;;;;;;;;;;5060685;28;20126;-59
2021/07/03 00:40:41;;;;;;;13.52;6.72;;;;;;;;;;5062360;28;20040;-59
2021/07/03 00:43:08;;;;;;;13.10;5.75;;;;;;;;;;5051619;28;20032;-59
2021/07/03 00:45:35;;;;;;;13.10;6.82;;;;;;;;;;5082992;28;20040;-59
2021/07/03 00:48:01;;;;;;;13.30;6.03;;;;;;;;;;5059520;28;20049;-59
2021/07/03 00:50:28;;;;;;;11.77;6.25;;;;;;;;;;5041890;28;20056;-59
2021/07/03 00:52:57;;;;;;;17.63;6.90;;;;;;;;;;5030070;28;20053;-58
2021/07/03 00:55:24;;;;;;;12.40;6.57;;;;;;;;;;5022934;28;20050;-59
2021/07/03 00:57:51;;;;;;;18.77;7.32;;;;;;;;;;5023434;28;20045;-58
2021/07/03 01:00:17;;;;;;;14.65;6.63;;;;;;;;;;5041378;28;20041;-59
2021/07/03 01:02:44;;;;;;;14.45;6.90;;;;;;;;;;5037944;28;20048;-58
2021/07/03 01:05:11;;;;;;;16.17;6.75;;;;;;;;;;5040718;28;20048;-58
2021/07/03 01:07:37;;;;;;;14.70;6.75;;;;;;;;;;5037625;28;20045;-58
2021/07/03 01:10:06;;;;;;;15.30;6.93;;;;;;;;;;5044341;28;20040;-58
2021/07/03 01:12:33;;;;;;;;;;;;;;;;;;5082157;28;20044;-58
2021/07/03 01:14:59;;;;;;;16.63;7.05;;;;;;;;;;5058138;28;19936;-58
2021/07/03 01:17:25;;;;;;;14.30;6.78;;;;;;;;;;5059570;28;20045;-58
2021/07/03 01:19:52;;;;;;;12.90;6.40;;;;;;;;;;5073255;28;20134;-58
2021/07/03 01:22:21;;;;;;;13.25;6.10;;;;;;;;;;5081248;28;20044;-58
2021/07/03 01:24:48;;;;;;;14.73;6.55;;;;;;;;;;5064048;28;20033;-58
2021/07/03 01:27:16;;;;;;;15.80;6.50;;;;;;;;;;5060708;28;20044;-58
2021/07/03 01:29:43;;;;;;;16.10;6.95;;;;;;;;;;5057297;28;20051;-58
2021/07/03 01:32:10;;;;;;;14.50;6.70;;;;;;;;;;5046347;28;20052;-58
2021/07/03 01:34:37;;;;;;;13.50;5.93;;;;;;;;;;5046078;28;20045;-58
2021/07/03 01:37:04;;;;;;;16.95;6.72;;;;;;;;;;5061319;28;20107;-58
2021/07/03 01:39:32;;;;;;;18.52;6.72;;;;;;;;;;5068691;28;20055;-58
2021/07/03 01:41:58;;;;;;;15.47;6.53;;;;;;;;;;5041206;28;20045;-57
2021/07/03 01:44:25;;;;;;;15.77;7.07;;;;;;;;;;5038088;28;20425;-58
2021/07/03 01:46:52;;;;;;;14.25;6.78;;;;;;;;;;5040814;28;20057;-58
2021/07/03 01:49:19;;;;;;;16.13;7.07;;;;;;;;;;5037765;28;20018;-58
2021/07/03 01:51:46;;;;;;;14.95;6.85;;;;;;;;;;5040395;28;20098;-58
2021/07/03 01:54:13;;;;;;;17.83;7.05;;;;;;;;;;5041253;28;20058;-58
2021/07/03 01:56:42;;;;;;;14.55;6.80;;;;;;;;;;5040344;28;20033;-58
2021/07/03 01:59:08;;;;;;;12.57;6.63;;;;;;;;;;5057901;28;20065;-58
2021/07/03 02:01:35;;;;;;;17.70;6.70;;;;;;;;;;5074925;28;20048;-58
2021/07/03 02:04:01;;;;;;;13.43;6.93;;;;;;;;;;5080461;28;20048;-59
2021/07/03 02:06:28;;;;;;;13.07;6.07;;;;;;;;;;5078387;28;20117;-58
2021/07/03 02:08:54;;;;;;;17.45;7.05;;;;;;;;;;5064509;28;20037;-58
2021/07/03 02:11:21;;;;;;;17.98;7.45;;;;;;;;;;5056068;28;20085;-58
2021/07/03 02:13:49;;;;;;;21.85;7.43;;;;;;;;;;5059365;28;20068;-58
2021/07/03 02:16:15;;;;;;;13.77;7.25;;;;;;;;;;5056531;28;20041;-58
2021/07/03 02:18:42;;;;;;;13.77;6.78;;;;;;;;;;5042213;28;20037;-58
2021/07/03 02:21:09;;;;;;;14.73;7.15;;;;;;;;;;5036995;28;20045;-59
2021/07/03 02:23:36;;;;;;;17.10;7.18;;;;;;;;;;5040283;28;20042;-58
2021/07/03 02:26:02;;;;;;;17.17;7.30;;;;;;;;;;5037183;28;20044;-58
2021/07/03 02:28:29;;;;;;;18.20;7.97;;;;;;;;;;5058885;28;20049;-59
2021/07/03 02:30:56;;;;;;;19.55;8.55;;;;;;;;;;5055663;28;20051;-58
2021/07/03 02:33:23;;;;;;;17.77;7.63;;;;;;;;;;5041712;28;20038;-58
2021/07/03 02:35:49;;;;;;;21.00;8.25;;;;;;;;;;5041823;28;20034;-58
2021/07/03 02:38:19;;;;;;;21.08;8.00;;;;;;;;;;5037784;28;20072;-58
2021/07/03 02:40:46;;;;;;;20.25;8.55;;;;;;;;;;5058722;28;20077;-58
2021/07/03 02:43:12;;;;;;;18.77;8.73;;;;;;;;;;5038668;28;20049;-58
2021/07/03 02:45:39;;;;;;;23.05;9.45;;;;;;;;;;5043124;28;20037;-58
2021/07/03 02:48:07;;;;;;;24.45;9.65;;;;;;;;;;5054491;28;20045;-58
2021/07/03 02:50:34;;;;;;;22.00;8.87;;;;;;;;;;5061882;28;20045;-58
2021/07/03 02:53:01;;;;;;;21.02;9.52;;;;;;;;;;5060516;28;20277;-58
2021/07/03 02:55:27;;;;;;;22.05;9.45;;;;;;;;;;5063208;28;20043;-58
2021/07/03 02:57:53;;;;;;;25.13;10.75;;;;;;;;;;5053963;28;20130;-58
2021/07/03 03:00:20;;;;;;;21.05;10.10;;;;;;;;;;5064019;28;20056;-58
2021/07/03 03:02:47;;;;;;;21.27;10.18;;;;;;;;;;5057689;28;20133;-58
2021/07/03 03:05:18;;;;;;;23.88;10.43;;;;;;;;;;5062976;28;20059;-58
2021/07/03 03:07:44;;;;;;;25.85;11.27;;;;;;;;;;5055621;28;20033;-58
2021/07/03 03:10:13;;;;;;;24.48;10.45;;;;;;;;;;5046029;28;20045;-59
2021/07/03 03:12:39;;;;;;;24.63;10.98;;;;;;;;;;5058526;28;20040;-58
2021/07/03 03:15:06;;;;;;;23.45;10.50;;;;;;;;;;5061665;28;20052;-58
2021/07/03 03:17:33;;;;;;;22.33;10.68;;;;;;;;;;5062800;28;20054;-59
2021/07/03 03:19:59;;;;;;;25.40;11.25;;;;;;;;;;5058979;28;20045;-58
2021/07/03 03:22:27;;;;;;;26.17;11.52;;;;;;;;;;5063079;28;20048;-59
2021/07/03 03:24:54;;;;;;;29.87;12.83;;;;;;;;;;5074731;28;20041;-59
2021/07/03 03:27:20;;;;;;;32.15;12.90;;;;;;;;;;5061458;28;20281;-58
2021/07/03 03:29:46;;;;;;;27.15;12.45;;;;;;;;;;5058632;28;20053;-59
2021/07/03 03:32:13;;;;;;;32.15;12.48;;;;;;;;;;5044683;28;20135;-59
2021/07/03 03:34:39;;;;;;;27.88;12.80;;;;;;;;;;5050678;28;20121;-58
2021/07/03 03:37:06;;;;;;;33.28;12.88;;;;;;;;;;5064097;28;20029;-59
2021/07/03 03:39:34;;;;;;;31.85;12.95;;;;;;;;;;5051819;28;20037;-59
2021/07/03 03:42:02;;;;;;;33.83;13.83;;;;;;;;;;5042824;28;20033;-58
2021/07/03 03:44:28;;;;;;;33.78;14.32;;;;;;;;;;5039529;28;20287;-59
2021/07/03 03:46:55;;;;;;;27.77;13.52;;;;;;;;;;5042949;28;20052;-58
2021/07/03 03:49:22;;;;;;;36.30;14.15;;;;;;;;;;5039811;28;20110;-58
2021/07/03 03:51:49;;;;;;;30.40;13.93;;;;;;;;;;5041558;28;20040;-58
2021/07/03 03:54:15;;;;;;;32.25;13.60;;;;;;;;;;5041114;28;20045;-58
2021/07/03 03:56:43;;;;;;;33.70;13.43;;;;;;;;;;5062100;28;20052;-58
2021/07/03 03:59:11;;;;;;;30.42;13.57;;;;;;;;;;5061368;28;20059;-58
2021/07/03 04:01:38;;;;;;;27.13;13.40;;;;;;;;;;5040303;28;20053;-59
2021/07/03 04:04:05;;;;;;;32.75;13.50;;;;;;;;;;5041781;28;20111;-59
2021/07/03 04:06:31;;;;;;;27.92;12.77;;;;;;;;;;5039623;28;20053;-58
2021/07/03 04:08:58;;;;;;;28.00;13.50;;;;;;;;;;5043531;28;20051;-58
2021/07/03 04:11:27;;;;;;;28.25;12.55;;;;;;;;;;5058231;28;20029;-58
2021/07/03 04:13:55;;;;;;;37.40;13.90;;;;;;;;;;5063185;28;20132;-59
2021/07/03 04:16:23;;;;;;;31.50;13.63;;;;;;;;;;5057821;28;20055;-59
2021/07/03 04:18:49;;;;;;;29.07;13.10;;;;;;;;;;5061880;28;20037;-58
2021/07/03 04:21:16;;;;;;;29.25;13.13;;;;;;;;;;5048475;28;20119;-59
2021/07/03 04:23:42;;;;;;;30.13;13.50;;;;;;;;;;5040680;28;20029;-59
2021/07/03 04:26:08;;;;;;;31.67;13.57;;;;;;;;;;5045000;28;20126;-58
2021/07/03 04:28:35;;;;;;;30.17;13.02;;;;;;;;;;5061044;28;20037;-58
2021/07/03 04:31:03;;;;;;;27.38;13.35;;;;;;;;;;5057228;28;20142;-58
2021/07/03 04:33:29;;;;;;;28.40;11.87;;;;;;;;;;5061790;28;20121;-58
2021/07/03 04:35:56;;;;;;;21.30;10.27;;;;;;;;;;5055259;28;20370;-59
2021/07/03 04:38:22;;;;;;;26.83;11.10;;;;;;;;;;5042714;28;20041;-58
2021/07/03 04:40:49;;;;;;;30.48;12.15;;;;;;;;;;5041122;28;20157;-58
2021/07/03 04:43:15;;;;;;;28.25;11.73;;;;;;;;;;5059664;28;20029;-59
2021/07/03 04:45:42;;;;;;;26.13;11.90;;;;;;;;;;5060042;28;20102;-58
2021/07/03 04:48:09;;;;;;;27.65;11.02;;;;;;;;;;5039768;28;20060;-58
2021/07/03 04:50:36;;;;;;;23.67;10.60;;;;;;;;;;5043230;28;20047;-59
2021/07/03 04:53:02;;;;;;;28.27;11.90;;;;;;;;;;5038802;28;20038;-59
2021/07/03 04:55:29;;;;;;;24.88;11.00;;;;;;;;;;5041595;28;20105;-59
2021/07/03 04:57:57;;;;;;;27.25;12.02;;;;;;;;;;5039091;28;20041;-58
2021/07/03 05:00:23;;;;;;;27.25;11.88;;;;;;;;;;5040878;28;20037;-58
2021/07/03 05:02:50;;;;;;;25.27;11.10;;;;;;;;;;5047930;28;20042;-58
2021/07/03 05:05:17;;;;;;;29.20;11.63;;;;;;;;;;5062054;28;20090;-58
2021/07/03 05:07:44;;;;;;;23.48;11.52;;;;;;;;;;5052476;28;20114;-59
2021/07/03 05:10:11;;;;;;;26.63;11.65;;;;;;;;;;5054393;28;20052;-59
2021/07/03 05:12:37;;;;;;;29.60;13.00;;;;;;;;;;5042324;28;20122;-58
2021/07/03 05:15:05;;;;;;;28.98;12.60;;;;;;;;;;5061262;28;20028;-58
2021/07/03 05:17:31;;;;;;;26.42;12.10;;;;;;;;;;5059356;28;20048;-59
2021/07/03 05:19:58;;;;;;;32.45;13.20;;;;;;;;;;5060765;28;20032;-59
2021/07/03 05:22:26;;;;;;;31.40;14.85;;;;;;;;;;5061533;28;20048;-58
2021/07/03 05:24:53;;;;;;;36.38;15.18;;;;;;;;;;5056810;28;20036;-59
2021/07/03 05:27:19;;;;;;;36.70;15.85;;;;;;;;;;5060767;28;20044;-58
2021/07/03 05:29:46;;;;;;;37.72;15.73;;;;;;;;;;5055812;28;20052;-59
2021/07/03 05:32:13;;;;;;;42.90;16.10;;;;;;;;;;5059364;28;20114;-58
2021/07/03 05:34:39;;;;;;;38.67;16.48;;;;;;;;;;5055230;28;20051;-58
2021/07/03 05:37:06;;;;;;;35.95;15.93;;;;;;;;;;5060255;28;20055;-58
2021/07/03 05:39:34;;;;;;;40.38;15.50;;;;;;;;;;5044847;28;20083;-58
2021/07/03 05:42:02;;;;;;;37.47;16.10;;;;;;;;;;5039368;28;20060;-59
2021/07/03 05:44:29;;;;;;;40.67;16.63;;;;;;;;;;5036485;28;20366;-58
2021/07/03 05:46:55;;;;;;;34.47;16.15;;;;;;;;;;5040761;28;20168;-59
2021/07/03 05:49:22;;;;;;;38.97;17.05;;;;;;;;;;5044050;28;20055;-58
2021/07/03 05:51:48;;;;;;;40.85;15.50;;;;;;;;;;5061388;28;20041;-58
2021/07/03 05:54:17;;;;;;;41.58;16.20;;;;;;;;;;5055580;28;20044;-59
2021/07/03 05:56:45;;;;;;;42.55;16.60;;;;;;;;;;5059308;28;20055;-58
2021/07/03 05:59:12;;;;;;;38.80;16.17;;;;;;;;;;5050990;28;20080;-59
2021/07/03 06:01:39;;;;;;;47.63;17.35;;;;;;;;;;5040782;28;20041;-59
2021/07/03 06:04:05;;;;;;;31.33;15.48;;;;;;;;;;5038976;28;20044;-59
2021/07/03 06:06:32;;;;;;;41.78;15.88;;;;;;;;;;5061967;28;20058;-59
2021/07/03 06:08:59;;;;;;;36.00;16.27;;;;;;;;;;5060594;28;20040;-59
2021/07/03 06:11:26;;;;;;;38.80;16.15;;;;;;;;;;5047294;28;20037;-59
2021/07/03 06:13:55;;;;;;;38.47;16.30;;;;;;;;;;5043193;28;20037;-58
2021/07/03 06:16:24;;;;;;;37.67;15.65;;;;;;;;;;5054867;28;20049;-59
2021/07/03 06:18:51;;;;;;;40.58;17.00;;;;;;;;;;5063305;28;20049;-59
2021/07/03 06:21:19;;;;;;;41.28;16.50;;;;;;;;;;5045544;28;20048;-59
2021/07/03 06:23:45;;;;;;;41.77;16.93;;;;;;;;;;5042823;28;20045;-59
2021/07/03 06:26:12;;;;;;;40.58;16.73;;;;;;;;;;5049963;28;20117;-59
2021/07/03 06:28:38;;;;;;;44.83;16.85;;;;;;;;;;5063621;28;20037;-59
2021/07/03 06:31:06;;;;;;;34.42;15.15;;;;;;;;;;5044798;28;20099;-59
2021/07/03 06:33:33;;;;;;;31.70;15.83;;;;;;;;;;5023210;28;20064;-59
2021/07/03 06:35:59;;;;;;;34.88;14.65;;;;;;;;;;5025758;28;20309;-59
2021/07/03 06:38:25;;;;;;;39.05;15.75;;;;;;;;;;5042766;28;20029;-59
2021/07/03 06:40:57;;;;;;;34.72;15.80;;;;;;;;;;5041241;28;20051;-59
2021/07/03 06:43:23;;;;;;;34.40;15.90;;;;;;;;;;5033471;28;20048;-59
2021/07/03 06:45:50;;;;;;;36.08;15.55;;;;;;;;;;5020358;28;20049;-59
2021/07/03 06:48:17;;;;;;;34.50;15.38;;;;;;;;;;5024464;28;20053;-58
2021/07/03 06:50:44;;;;;;;35.85;16.65;;;;;;;;;;5022124;28;20065;-59
2021/07/03 06:53:10;;;;;;;42.45;16.17;;;;;;;;;;5020730;28;20030;-59
2021/07/03 06:55:37;;;;;;;39.42;16.10;;;;;;;;;;5022969;28;20127;-59
2021/07/03 06:58:03;;;;;;;37.47;16.63;;;;;;;;;;5020818;28;20045;-59
2021/07/03 07:00:30;;;;;;;37.92;16.05;;;;;;;;;;5023177;28;20042;-59
2021/07/03 07:02:56;;;;;;;35.40;16.25;;;;;;;;;;5018528;28;20042;-59
2021/07/03 07:05:24;;;;;;;42.28;16.55;;;;;;;;;;5022657;28;20037;-59
2021/07/03 07:07:51;;;;;;;38.42;16.98;;;;;;;;;;5019413;28;20123;-60
2021/07/03 07:10:17;;;;;;;38.45;17.50;;;;;;;;;;5037112;28;20037;-60
2021/07/03 07:12:44;;;;;;;42.88;18.02;;;;;;;;;;5052518;28;20072;-60
2021/07/03 07:15:12;;;;;;;41.97;15.85;;;;;;;;;;5049011;28;20087;-59
2021/07/03 07:17:38;;;;;;;31.40;14.45;;;;;;;;;;5032712;28;20037;-59
2021/07/03 07:20:05;;;;;;;40.05;16.77;;;;;;;;;;5022692;28;20123;-59
2021/07/03 07:22:34;;;;;;;39.78;16.30;;;;;;;;;;5021436;28;20674;-59
2021/07/03 07:25:00;;;;;;;38.65;16.17;;;;;;;;;;5041986;28;20148;-59
2021/07/03 07:27:27;;;;;;;43.20;17.38;;;;;;;;;;5037300;28;20084;-60
2021/07/03 07:29:53;;;;;;;39.92;16.60;;;;;;;;;;5031936;28;20130;-59
2021/07/03 07:32:20;;;;;;;28.45;13.55;;;;;;;;;;5072767;28;20040;-60
2021/07/03 07:34:49;;;;;;;35.42;16.08;;;;;;;;;;5048469;28;20043;-60
2021/07/03 07:37:16;;;;;;;37.40;15.60;;;;;;;;;;5067704;28;20126;-59
2021/07/03 07:39:44;;;;;;;37.97;17.65;;;;;;;;;;5071115;28;20053;-60
2021/07/03 07:42:10;;;;;;;31.23;15.68;;;;;;;;;;5062915;28;20094;-60
2021/07/03 07:44:37;;;;;;;38.15;16.52;;;;;;;;;;5057450;28;20036;-59
2021/07/03 07:47:04;;;;;;;35.50;15.57;;;;;;;;;;5061769;28;20051;-60
2021/07/03 07:49:30;;;;;;;38.85;16.17;;;;;;;;;;5055725;28;20047;-60
2021/07/03 07:51:58;;;;;;;31.75;14.93;;;;;;;;;;5079480;28;20063;-59
2021/07/03 07:54:24;;;;;;;35.23;15.03;;;;;;;;;;5052250;28;20036;-60
2021/07/03 07:56:52;;;;;;;31.42;14.38;;;;;;;;;;5053557;28;20035;-60
2021/07/03 07:59:19;;;;;;;36.30;15.02;;;;;;;;;;5046777;28;20041;-59
2021/07/03 08:01:45;;;;;;;35.30;15.63;;;;;;;;;;5070085;28;20040;-59
2021/07/03 08:04:11;;;;;;;31.52;15.43;;;;;;;;;;5065834;28;20036;-60
2021/07/03 08:06:38;;;;;;;32.17;15.52;;;;;;;;;;5072042;28;20122;-61
2021/07/03 08:09:05;;;;;;;32.78;15.07;;;;;;;;;;5070246;28;20052;-60
2021/07/03 08:11:31;;;;;;;31.67;14.88;;;;;;;;;;5073787;28;20129;-60
2021/07/03 08:13:59;;;;;;;32.90;14.40;;;;;;;;;;5090785;28;20031;-60
2021/07/03 08:16:25;;;;;;;28.52;12.75;;;;;;;;;;5070033;28;20054;-59
2021/07/03 08:18:52;;;;;;;32.90;14.20;;;;;;;;;;5070578;28;20132;-60
2021/07/03 08:21:20;;;;;;;32.20;14.15;;;;;;;;;;5067926;28;20050;-60
2021/07/03 08:23:47;;;;;;;29.90;14.15;;;;;;;;;;5069728;28;20050;-60
2021/07/03 08:26:13;;;;;;;27.63;13.02;;;;;;;;;;5063712;28;20052;-60
2021/07/03 08:28:40;;;;;;;24.25;12.18;;;;;;;;;;5073986;28;20040;-60
2021/07/03 08:31:08;;;;;;;25.08;10.27;;;;;;;;;;5082011;28;20048;-59
2021/07/03 08:33:34;;;;;;;27.17;11.40;;;;;;;;;;5068412;28;20040;-60
2021/07/03 08:36:01;;;;;;;28.45;11.73;;;;;;;;;;5067811;28;20048;-60
2021/07/03 08:38:27;;;;;;;24.40;10.93;;;;;;;;;;5069949;28;20045;-60
2021/07/03 08:40:54;;;;;;;26.80;12.05;;;;;;;;;;5064793;28;20075;-60
2021/07/03 08:43:21;;;;;;;23.58;10.18;;;;;;;;;;5069034;28;20161;-60
2021/07/03 08:45:48;;;;;;;21.90;10.32;;;;;;;;;;5066192;28;20133;-60
2021/07/03 08:48:18;;;;;;;23.98;10.90;;;;;;;;;;5071285;28;20048;-60
2021/07/03 08:50:45;;;;;;;22.50;10.27;;;;;;;;;;5067837;28;20028;-60
2021/07/03 08:53:12;;;;;;;29.55;10.95;;;;;;;;;;5067456;28;20044;-60
2021/07/03 08:55:38;;;;;;;26.08;10.57;;;;;;;;;;5088097;28;20040;-60
2021/07/03 08:58:08;;;;;;;18.92;10.13;;;;;;;;;;5083176;28;20040;-60
2021/07/03 09:00:35;;;;;;;21.85;10.63;;;;;;;;;;5070525;28;20050;-60
2021/07/03 09:03:10;;;;;;;19.90;8.75;;;;;;;;;;5086689;28;20067;-60
2021/07/03 09:05:37;;;;;;;25.38;10.50;;;;;;;;;;5076727;28;20040;-60
2021/07/03 09:08:05;;;;;;;22.55;10.13;;;;;;;;;;5064447;28;20117;-60
2021/07/03 09:10:32;;;;;;;21.07;9.63;;;;;;;;;;5069194;28;20063;-60
2021/07/03 09:13:00;;;;;;;24.38;10.35;;;;;;;;;;5064966;28;20137;-60
2021/07/03 09:15:28;;;;;;;18.00;8.98;;;;;;;;;;5069183;28;20048;-60
2021/07/03 09:17:55;;;;;;;18.97;8.60;;;;;;;;;;5067188;28;20067;-60
2021/07/03 09:20:23;;;;;;;18.08;9.32;;;;;;;;;;5087144;28;20037;-60
2021/07/03 09:22:52;;;;;;;16.83;7.45;;;;;;;;;;5082946;28;20059;-60
2021/07/03 09:25:18;;;;;;;;;;;;;;;;;;5065985;28;20070;-60
2021/07/03 09:27:44;;;;;;;15.07;7.22;;;;;;;;;;5065622;28;19935;-60
2021/07/03 09:30:19;;;;;;;19.63;8.23;;;;;;;;;;5071311;28;20029;-60
2021/07/03 09:32:51;;;;;;;15.88;8.00;;;;;;;;;;5089443;28;20047;-60
2021/07/03 09:35:18;;;;;;;15.50;6.65;;;;;;;;;;5073039;28;20055;-61
2021/07/03 09:37:45;;;;;;;17.05;7.95;;;;;;;;;;5062515;28;20138;-61
2021/07/03 09:40:13;;;;;;;17.85;8.07;;;;;;;;;;5088316;28;20052;-60
2021/07/03 09:42:41;;;;;;;12.27;6.60;;;;;;;;;;5065571;28;20073;-60
2021/07/03 09:45:08;;;;;;;15.48;6.97;;;;;;;;;;5069157;28;20044;-60
2021/07/03 09:47:37;;;;;;;17.70;7.43;;;;;;;;;;5062161;28;20049;-60
2021/07/03 09:50:08;;;;;;;17.58;7.32;;;;;;;;;;5065499;28;20055;-60
2021/07/03 09:52:36;;;;;;;17.60;6.97;;;;;;;;;;5071089;28;20045;-60
2021/07/03 09:55:03;;;;;;;16.00;6.77;;;;;;;;;;5064809;28;20046;-60
2021/07/03 09:57:34;;;;;;;15.43;7.72;;;;;;;;;;5068886;28;20268;-60
2021/07/03 10:00:01;;;;;;;11.88;6.15;;;;;;;;;;5065648;28;20116;-60
2021/07/03 10:02:29;;;;;;;15.35;6.75;;;;;;;;;;5069134;28;20090;-60
2021/07/03 10:04:56;;;;;;;13.37;6.43;;;;;;;;;;5084737;28;20047;-60
2021/07/03 10:07:23;;;;;;;14.85;6.60;;;;;;;;;;5069344;28;20050;-60
2021/07/03 10:09:51;;;;;;;15.93;6.60;;;;;;;;;;5064514;28;20165;-60
2021/07/03 10:12:23;;;;;;;15.18;7.32;;;;;;;;;;5072409;28;20028;-60
2021/07/03 10:14:52;;;;;;;15.07;6.63;;;;;;;;;;5084627;28;20036;-60
2021/07/03 10:17:22;;;;;;;13.35;6.03;;;;;;;;;;5087859;28;20078;-60
2021/07/03 10:19:49;;;;;;;10.40;5.68;;;;;;;;;;5063307;28;20040;-61
2021/07/03 10:22:16;;;;;;;10.40;5.53;;;;;;;;;;5085913;28;20121;-60
2021/07/03 10:24:44;;;;;;;15.27;5.93;;;;;;;;;;5065232;28;20244;-60
2021/07/03 10:27:20;;;;;;;12.47;5.53;;;;;;;;;;5066070;28;20043;-61
2021/07/03 10:29:47;;;;;;;10.88;5.45;;;;;;;;;;5066081;28;20288;-61
2021/07/03 10:32:23;;;;;;;11.52;5.50;;;;;;;;;;5068761;28;20052;-60
2021/07/03 10:34:49;;;;;;;8.95;4.85;;;;;;;;;;5061258;28;20222;-61
2021/07/03 10:37:17;;;;;;;9.82;4.90;;;;;;;;;;5081989;28;20051;-61
2021/07/03 10:39:43;;;;;;;15.70;5.70;;;;;;;;;;5064539;28;20137;-60
2021/07/03 10:42:10;;;;;;;11.00;4.95;;;;;;;;;;5051554;28;20125;-60
2021/07/03 10:44:38;;;;;;;10.90;4.75;;;;;;;;;;5062771;28;20117;-60
2021/07/03 10:47:08;;;;;;;9.98;3.92;;;;;;;;;;5059572;28;20048;-60
2021/07/03 10:49:37;;;;;;;12.82;4.13;;;;;;;;;;5079276;28;20222;-60
2021/07/03 10:52:12;;;;;;;8.43;4.35;;;;;;;;;;5076284;28;20059;-61
2021/07/03 10:54:38;;;;;;;13.65;4.45;;;;;;;;;;5085793;28;20063;-60
2021/07/03 10:57:07;;;;;;;11.00;4.28;;;;;;;;;;5081863;28;20054;-60
2021/07/03 10:59:34;;;;;;;7.80;3.88;;;;;;;;;;5086763;28;20059;-59
2021/07/03 11:02:09;;;;;;;8.65;3.97;;;;;;;;;;5072437;28;20044;-59
2021/07/03 11:04:47;;;;;;;12.48;5.03;;;;;;;;;;5065784;28;20121;-59
2021/07/03 11:07:13;;;;;;;;;;;;;;;;;;5070091;28;20032;-59
2021/07/03 11:09:40;;;;;;;14.68;4.57;;;;;;;;;;5083692;28;19924;-59
2021/07/03 11:12:14;;;;;;;9.70;4.50;;;;;;;;;;5067755;28;20117;-69
2021/07/03 11:14:41;;;;;;;8.55;3.92;;;;;;;;;;5084961;28;20036;-63
2021/07/03 11:17:10;;;;;;;10.27;3.72;;;;;;;;;;5081005;28;20080;-61
2021/07/03 11:19:37;;;;;;;10.65;4.47;;;;;;;;;;5085621;28;20039;-62
2021/07/03 11:22:09;;;;;;;10.23;4.55;;;;;;;;;;5079188;28;20037;-59
2021/07/03 11:24:42;;;;;;;11.43;4.50;;;;;;;;;;5082510;28;20117;-59
2021/07/03 11:27:11;;;;;;;11.98;4.65;;;;;;;;;;5078988;28;20051;-59
2021/07/03 11:29:38;;;;;;;7.40;3.95;;;;;;;;;;5057038;28;20048;-60
2021/07/03 11:32:06;;;;;;;16.65;4.60;;;;;;;;;;5059942;28;20141;-59
2021/07/03 11:34:32;;;;;;;9.57;4.40;;;;;;;;;;5060860;28;20119;-59
2021/07/03 11:36:59;;;;;;;9.23;4.90;;;;;;;;;;5062390;28;20125;-59
2021/07/03 11:39:29;;;;;;;9.82;4.93;;;;;;;;;;5059064;28;20064;-66
2021/07/03 11:42:00;;;;;;;9.60;4.05;;;;;;;;;;5059012;28;20036;-58
2021/07/03 11:44:26;;;;;;;10.38;4.82;;;;;;;;;;5057989;28;20057;-59
2021/07/03 11:46:53;;;;;;;12.40;5.50;;;;;;;;;;5060631;28;20059;-58
2021/07/03 11:49:19;;;;;;;11.30;5.53;;;;;;;;;;5056703;28;20052;-58
2021/07/03 11:51:46;;;;;;;10.82;5.35;;;;;;;;;;5060836;28;20033;-58
2021/07/03 11:54:12;;;;;;;9.98;5.13;;;;;;;;;;5059128;28;20048;-59
2021/07/03 11:56:40;;;;;;;10.68;4.82;;;;;;;;;;5060944;28;20048;-58
2021/07/03 11:59:06;;;;;;;12.77;5.55;;;;;;;;;;5056826;28;20134;-59
2021/07/03 12:01:33;;;;;;;11.65;5.05;;;;;;;;;;5062489;28;20049;-59
2021/07/03 12:04:00;;;;;;;10.48;5.10;;;;;;;;;;5060813;28;20033;-59
2021/07/03 12:06:27;;;;;;;11.40;4.45;;;;;;;;;;5061512;28;20060;-59
2021/07/03 12:08:53;;;;;;;8.45;4.75;;;;;;;;;;5073660;28;20044;-59
2021/07/03 12:11:22;;;;;;;9.48;5.00;;;;;;;;;;5061178;28;20041;-58
2021/07/03 12:13:50;;;;;;;13.40;4.95;;;;;;;;;;5059799;28;20048;-59
2021/07/03 12:16:17;;;;;;;14.40;5.45;;;;;;;;;;5061282;28;20088;-59
2021/07/03 12:18:45;;;;;;;10.73;5.95;;;;;;;;;;5058532;28;20118;-59
2021/07/03 12:21:13;;;;;;;15.60;5.63;;;;;;;;;;5062432;28;20039;-58
2021/07/03 12:23:40;;;;;;;9.68;4.68;;;;;;;;;;5062671;28;20041;-59
2021/07/03 12:26:07;;;;;;;14.13;4.57;;;;;;;;;;5076177;28;20048;-59
2021/07/03 12:28:34;;;;;;;10.35;5.15;;;;;;;;;;5081385;28;20047;-59
2021/07/03 12:31:06;;;;;;;12.27;5.60;;;;;;;;;;5061745;28;20056;-59
2021/07/03 12:33:33;;;;;;;11.98;5.43;;;;;;;;;;5061264;28;20033;-59
2021/07/03 12:36:00;;;;;;;10.93;5.70;;;;;;;;;;5063539;28;20044;-59
2021/07/03 12:38:27;;;;;;;11.27;5.88;;;;;;;;;;5075155;28;20072;-59
2021/07/03 12:40:54;;;;;;;14.00;5.53;;;;;;;;;;5062736;28;20048;-60
2021/07/03 12:43:29;;;;;;;10.45;4.68;;;;;;;;;;5067401;28;20046;-59
2021/07/03 12:45:58;;;;;;;11.10;5.25;;;;;;;;;;5068982;28;20037;-59
2021/07/03 12:48:33;;;;;;;12.85;5.20;;;;;;;;;;5065718;28;20151;-58
2021/07/03 12:51:00;;;;;;;9.60;4.40;;;;;;;;;;5067667;28;20044;-59
2021/07/03 12:53:31;;;;;;;10.88;3.67;;;;;;;;;;5063049;28;20037;-59
2021/07/03 12:55:58;;;;;;;8.57;4.22;;;;;;;;;;5059336;28;20052;-59
2021/07/03 12:58:25;;;;;;;7.10;3.83;;;;;;;;;;5063398;28;20057;-59
2021/07/03 13:00:52;;;;;;;8.02;3.78;;;;;;;;;;5063765;28;20033;-59
2021/07/03 13:03:19;;;;;;;8.40;4.30;;;;;;;;;;5064528;28;20041;-59
2021/07/03 13:05:49;;;;;;;8.23;4.05;;;;;;;;;;5060291;28;20063;-58
2021/07/03 13:08:15;;;;;;;7.35;4.20;;;;;;;;;;5064149;28;20051;-59
2021/07/03 13:10:44;;;;;;;7.07;4.00;;;;;;;;;;5062964;28;20118;-59
2021/07/03 13:13:10;;;;;;;10.43;4.32;;;;;;;;;;5072198;28;20059;-59
2021/07/03 13:15:37;;;;;;;9.23;4.65;;;;;;;;;;5062485;28;20045;-59
2021/07/03 13:18:04;;;;;;;9.52;4.65;;;;;;;;;;5059406;28;20048;-59
2021/07/03 13:20:30;;;;;;;11.32;4.40;;;;;;;;;;5065786;28;20117;-59
2021/07/03 13:23:00;;;;;;;8.57;4.25;;;;;;;;;;5060047;28;20126;-59
2021/07/03 13:25:27;;;;;;;10.45;4.35;;;;;;;;;;5065304;28;20052;-59
2021/07/03 13:27:53;;;;;;;11.52;4.18;;;;;;;;;;5063582;28;20052;-59
2021/07/03 13:30:21;;;;;;;9.75;4.45;;;;;;;;;;5065202;28;20040;-59
2021/07/03 13:32:48;;;;;;;11.35;4.95;;;;;;;;;;5069016;28;20084;-59
2021/07/03 13:35:17;;;;;;;10.57;5.85;;;;;;;;;;5088029;28;20055;-59
2021/07/03 13:37:43;;;;;;;11.50;5.20;;;;;;;;;;5088727;28;20052;-59
2021/07/03 13:40:11;;;;;;;7.93;4.05;;;;;;;;;;5081195;28;20048;-59
2021/07/03 13:42:39;;;;;;;;;;;;;;;;;;5064475;28;20080;-59
2021/07/03 13:45:06;;;;;;;7.85;3.72;;;;;;;;;;5078916;28;19931;-59
2021/07/03 13:47:33;;;;;;;8.55;4.50;;;;;;;;;;5080543;28;20044;-59
2021/07/03 13:50:01;;;;;;;7.78;4.07;;;;;;;;;;5099727;28;20036;-58
2021/07/03 13:52:28;;;;;;;8.15;4.40;;;;;;;;;;5077491;28;20036;-59
2021/07/03 13:54:55;;;;;;;8.63;4.32;;;;;;;;;;5064280;28;20040;-59
2021/07/03 13:57:24;;;;;;;7.28;3.85;;;;;;;;;;5062307;28;20040;-59
2021/07/03 13:59:50;;;;;;;;;;;;;;;;;;5075370;28;20120;-59
2021/07/03 14:02:16;;;;;;;9.60;4.65;;;;;;;;;;5075391;28;19916;-59
2021/07/03 14:04:43;;;;;;;13.05;4.30;;;;;;;;;;5075347;28;20036;-59
2021/07/03 14:07:09;;;;;;;7.57;3.88;;;;;;;;;;5082549;28;20104;-59
2021/07/03 14:09:36;;;;;;;9.95;4.07;;;;;;;;;;5065786;28;20054;-59
2021/07/03 14:12:03;;;;;;;9.63;3.83;;;;;;;;;;5096855;28;20036;-59
2021/07/03 14:14:31;;;;;;;10.27;3.78;;;;;;;;;;5097241;28;20053;-59
2021/07/03 14:16:57;;;;;;;7.90;4.10;;;;;;;;;;5085975;28;20059;-59
2021/07/03 14:19:26;;;;;;;9.57;4.65;;;;;;;;;;5075689;28;20055;-59
2021/07/03 14:21:53;;;;;;;10.68;4.38;;;;;;;;;;5080052;28;20050;-58
2021/07/03 14:24:19;;;;;;;9.85;4.20;;;;;;;;;;5070974;28;20040;-59
2021/07/03 14:26:47;;;;;;;9.57;4.35;;;;;;;;;;5056704;28;20041;-59
2021/07/03 14:29:13;;;;;;;5.43;3.27;;;;;;;;;;5064760;28;20124;-58